Home > Products > Valid Products > TAF

000
FTUS43 KICT 252300
TAFCNU
TAF
KCNU 252326Z 2600/2624 17006KT P6SM SKC
     FM260600 16006KT 5SM BR SKC
     FM261000 VRB06KT 2SM BR BKN006
      TEMPO 2610/2614 1SM BR VV001
     FM261500 18014KT P6SM SCT250=



000
FTUS43 KICT 252300
TAFHUT
TAF
KHUT 252326Z 2600/2624 16007KT P6SM SKC
     FM260900 14006KT 4SM BR SKC
      TEMPO 2610/2614 2SM BR BKN006
     FM261500 18014G24KT P6SM SCT250=



000
FTUS43 KICT 252300
TAFSLN
TAF
KSLN 252326Z 2600/2624 12007KT P6SM SKC
     FM260900 14006KT 5SM BR SKC
      TEMPO 2610/2614 2SM BR BKN006
     FM261500 18014KT P6SM SCT250=



000
FTUS43 KICT 252300
TAFRSL
TAF
KRSL 252326Z 2600/2624 13012KT P6SM SKC
     FM260900 16011KT P6SM SKC
     FM262100 22012KT P6SM SKC=



000
FTUS43 KICT 252300
TAFICT
TAF
KICT 252326Z 2600/2624 17007KT P6SM SKC
     FM260900 14006KT 5SM BR SKC
      TEMPO 2610/2614 2SM BR BKN006
     FM261500 18014G24KT P6SM SCT250=



000
FTUS43 KICT 251700
TAFRSL
TAF
KRSL 251720Z 2518/2618 13012KT P6SM SKC
     FM260900 16011KT P6SM SKC=



000
FTUS43 KICT 251700
TAFCNU
TAF
KCNU 251720Z 2518/2618 VRB06KT P6SM SKC
     FM260400 11006KT 5SM BR SKC
     FM261000 VRB06KT 2SM BR BKN006
      TEMPO 2610/2614 1SM BR VV001
     FM261500 18014KT P6SM FEW250=



000
FTUS43 KICT 251700
TAFHUT
TAF
KHUT 251720Z 2518/2618 14007KT P6SM SKC
     FM260600 14006KT 3SM BR SKC
      TEMPO 2610/2614 2SM BR BKN006
     FM261500 18014KT P6SM FEW250=



000
FTUS43 KICT 251700
TAFSLN
TAF
KSLN 251720Z 2518/2618 12007KT P6SM SKC
     FM260600 14006KT 5SM BR SKC
      TEMPO 2610/2614 2SM BR BKN006
     FM261500 18014KT P6SM FEW250=



000
FTUS43 KICT 251700
TAFICT
TAF
KICT 251720Z 2518/2618 14007KT P6SM SKC
     FM260600 14006KT 5SM BR SKC
      TEMPO 2610/2614 2SM BR BKN006
     FM261500 18014KT P6SM FEW250=



000
FTUS43 KICT 251700
TAFRSL
TAF
KRSL 251720Z 2518/2618 13012KT P6SM SKC
     FM260900 16011KT P6SM SKC=



000
FTUS43 KICT 251700
TAFCNU
TAF
KCNU 251720Z 2518/2618 VRB06KT P6SM SKC
     FM260400 11006KT 5SM BR SKC
     FM261000 VRB06KT 2SM BR BKN006
      TEMPO 2610/2614 1SM BR VV001
     FM261500 18014KT P6SM FEW250=



000
FTUS43 KICT 251700
TAFSLN
TAF
KSLN 251720Z 2518/2618 12007KT P6SM SKC
     FM260600 14006KT 5SM BR SKC
      TEMPO 2610/2614 2SM BR BKN006
     FM261500 18014KT P6SM FEW250=



000
FTUS43 KICT 251700
TAFHUT
TAF
KHUT 251720Z 2518/2618 14007KT P6SM SKC
     FM260600 14006KT 3SM BR SKC
      TEMPO 2610/2614 2SM BR BKN006
     FM261500 18014KT P6SM FEW250=



000
FTUS43 KICT 251700
TAFICT
TAF
KICT 251720Z 2518/2618 14007KT P6SM SKC
     FM260600 14006KT 5SM BR SKC
      TEMPO 2610/2614 2SM BR BKN006
     FM261500 18014KT P6SM FEW250=



000
FTUS43 KICT 251500 AAC
TAFSLN
TAF AMD
KSLN 251510Z 2515/2612 19004KT 5SM BR SKC
     FM251600 07004KT P6SM SKC
     FM252000 13009KT P6SM SKC=



000
FTUS43 KICT 251500 AAA
TAFICT
TAF AMD
KICT 251509Z 2515/2612 VRB03KT 5SM BR SKC
     FM251600 09005KT P6SM SKC
     FM252000 13007KT P6SM SKC=



000
FTUS43 KICT 251500 AAB
TAFHUT
TAF AMD
KHUT 251509Z 2515/2612 VRB05KT 5SM BR SKC
     FM251600 07005KT P6SM SKC
     FM252000 12007KT P6SM SKC=



000
FTUS43 KICT 251500 AAB
TAFCNU
TAF AMD
KCNU 251508Z 2515/2612 01003KT 5SM BR SKC
     FM251600 05004KT P6SM SKC
     FM252000 09007KT P6SM SKC=



000
FTUS43 KICT 251400 AAA
TAFCNU
TAF AMD
KCNU 251415Z 2514/2612 00000KT 1/2SM FG SCT003
     FM251500 01003KT 3SM BR SKC
     FM251600 05004KT P6SM SKC
     FM252000 09007KT P6SM SKC=



000
FTUS43 KICT 251400 AAA
TAFHUT
TAF AMD
KHUT 251414Z 2514/2612 00000KT 1/4SM FG VV001
     FM251500 05005KT 3SM BR SKC
     FM251600 07005KT P6SM SKC
     FM252000 12007KT P6SM SKC=



000
FTUS43 KICT 251200 AAB
TAFSLN
TAF AMD
KSLN 251232Z 2513/2612 19004KT 3/4SM BR SCT003
      TEMPO 2513/2515 3SM BR
     FM251500 07004KT P6SM SKC
     FM252000 13009KT P6SM SKC=



000
FTUS43 KICT 251200 AAA
TAFSLN
TAF AMD
KSLN 251207Z 2512/2612 VRB03KT 1 1/2SM BR SKC
      TEMPO 2512/2515 3SM BR
     FM251500 07004KT P6SM SKC
     FM252000 13009KT P6SM SKC=



000
FTUS43 KICT 251200 AAA
TAFSLN
TAF AMD
KSLN 251207Z 2512/2612 VRB03KT 1 1/2SM BR SKC
      TEMPO 2512/2515 3SM BR
     FM251500 07004KT P6SM SKC
     FM252000 13009KT P6SM SKC=



000
FTUS43 KICT 251200 AAA
TAFICT
TAF AMD
KICT 251202Z 2512/2612 00000KT 1SM BR SCT003
      TEMPO 2512/2514 3SM BR
     FM251400 VRB03KT 5SM BR SKC
     FM251700 09005KT P6SM SKC
     FM252000 13007KT P6SM SKC=



000
FTUS43 KICT 251200 AAA
TAFICT
TAF AMD
KICT 251202Z 2512/2612 00000KT 1SM BR SCT003
      TEMPO 2512/2514 3SM BR
     FM251400 VRB03KT 5SM BR SKC
     FM251700 09005KT P6SM SKC
     FM252000 13007KT P6SM SKC=



000
FTUS43 KICT 251100 CCA
TAFSLN
TAF COR
KSLN 251140Z 2512/2612 VRB04KT 1/4SM FG VV002
     FM251400 07007KT 3SM BR SKC
     FM252000 13009KT P6SM SKC=



000
FTUS43 KICT 251100 CCA
TAFSLN
TAF COR
KSLN 251140Z 2512/2612 VRB04KT 1/4SM FG VV002
     FM251400 07007KT 3SM BR SKC
     FM252000 13009KT P6SM SKC=



000
FTUS43 KICT 251100
TAFRSL
TAF
KRSL 251137Z 2512/2612 VRB04KT P6SM SKC
     FM251500 09006KT P6SM SKC
     FM252000 13012KT P6SM SKC=



000
FTUS43 KICT 251100
TAFICT
TAF
KICT 251137Z 2512/2612 00000KT 1/4SM FG SCT003
     FM251400 VRB03KT 3SM BR SKC
     FM251700 09005KT P6SM SKC
     FM252000 13007KT P6SM SKC=



000
FTUS43 KICT 251100
TAFSLN
TAF
KSLN 251137Z 2512/2612 VRB04KT 1/2SM FG SCT003
     FM251400 07007KT 3SM BR SKC
     FM252000 13009KT P6SM SKC=



000
FTUS43 KICT 251100
TAFHUT
TAF
KHUT 251137Z 2512/2612 00000KT 1/4SM FG VV001
     FM251400 05005KT 3SM BR SKC
     FM251500 07005KT P6SM SKC
     FM252000 12007KT P6SM SKC=



000
FTUS43 KICT 251100
TAFCNU
TAF
KCNU 251137Z 2512/2612 00000KT 1/2SM FG SCT003
     FM251400 01003KT 3SM BR SKC
     FM251530 05004KT P6SM SKC
     FM252000 09007KT P6SM SKC=



000
FTUS43 KICT 251100
TAFSLN
TAF
KSLN 251137Z 2512/2612 VRB04KT 1/2SM FG SCT003
     FM251400 07007KT 3SM BR SKC
     FM252000 13009KT P6SM SKC=



000
FTUS43 KICT 251100
TAFCNU
TAF
KCNU 251137Z 2512/2612 00000KT 1/2SM FG SCT003
     FM251400 01003KT 3SM BR SKC
     FM251530 05004KT P6SM SKC
     FM252000 09007KT P6SM SKC=



000
FTUS43 KICT 251100
TAFRSL
TAF
KRSL 251137Z 2512/2612 VRB04KT P6SM SKC
     FM251500 09006KT P6SM SKC
     FM252000 13012KT P6SM SKC=



000
FTUS43 KICT 251100
TAFHUT
TAF
KHUT 251137Z 2512/2612 00000KT 1/4SM FG VV001
     FM251400 05005KT 3SM BR SKC
     FM251500 07005KT P6SM SKC
     FM252000 12007KT P6SM SKC=



000
FTUS43 KICT 251100
TAFICT
TAF
KICT 251137Z 2512/2612 00000KT 1/4SM FG SCT003
     FM251400 VRB03KT 3SM BR SKC
     FM251700 09005KT P6SM SKC
     FM252000 13007KT P6SM SKC=



000
FTUS43 KICT 251100 AAC
TAFSLN
TAF AMD
KSLN 251102Z 2511/2606 VRB04KT 1/2SM FG SCT003
      TEMPO 2511/2514 3SM BR
     FM251400 07007KT P6SM SKC
     FM252000 13009KT P6SM SKC=



000
FTUS43 KICT 251100 AAC
TAFSLN
TAF AMD
KSLN 251102Z 2511/2606 VRB04KT 1/2SM FG SCT003
      TEMPO 2511/2514 3SM BR
     FM251400 07007KT P6SM SKC
     FM252000 13009KT P6SM SKC=



000
FTUS43 KICT 251000 AAA
TAFCNU
TAF AMD
KCNU 251035Z 2511/2606 00000KT 1/2SM FG SCT003
      TEMPO 2511/2514 2SM BR
     FM251400 01003KT 3SM BR SKC
     FM251530 05004KT P6SM SKC
     FM252000 09007KT P6SM SKC=



000
FTUS43 KICT 251000 AAA
TAFCNU
TAF AMD
KCNU 251035Z 2511/2606 00000KT 1/2SM FG SCT003
      TEMPO 2511/2514 2SM BR
     FM251400 01003KT 3SM BR SKC
     FM251530 05004KT P6SM SKC
     FM252000 09007KT P6SM SKC=



000
FTUS43 KICT 251000 AAB
TAFSLN
TAF AMD
KSLN 251022Z 2510/2606 VRB04KT 4SM BR SKC
      TEMPO 2510/2514 2SM BR
     FM251400 07007KT P6SM SKC
     FM252000 13009KT P6SM SKC=



000
FTUS43 KICT 251000 AAB
TAFHUT
TAF AMD
KHUT 251018Z 2510/2606 00000KT 1/4SM FG VV001
     FM251400 05005KT 3SM BR SKC
     FM251500 07005KT P6SM SKC
     FM252000 12007KT P6SM SKC=



000
FTUS43 KICT 251000 AAA
TAFICT
TAF AMD
KICT 251012Z 2510/2606 00000KT 1/4SM FG SCT003
      TEMPO 2510/2514 3SM BR
     FM251400 VRB03KT P6SM SKC
     FM251700 09005KT P6SM SKC
     FM252000 13007KT P6SM SKC=



000
FTUS43 KICT 250800 AAA
TAFSLN
TAF AMD
KSLN 250815Z 2508/2606 00000KT 1SM BR SKC
      TEMPO 2508/2511 3SM BR
     FM251100 00000KT 1SM BR SKC
      TEMPO 2511/2514 4SM BR
     FM251400 07009KT P6SM SKC
     FM252000 11009KT P6SM SKC=



000
FTUS43 KICT 250800 AAA
TAFHUT
TAF AMD
KHUT 250802Z 2508/2606 00000KT 4SM BR SKC
      TEMPO 2508/2511 1/2SM FG
     FM251100 00000KT 1SM BR SKC
      TEMPO 2511/2514 4SM
     FM251400 05005KT P6SM SKC
     FM251700 12007KT P6SM SKC=



000
FTUS43 KICT 250500
TAFRSL
TAF
KRSL 250520Z 2506/2606 23005KT P6SM SKC
     FM251100 01005KT P6SM SKC
     FM251500 09006KT P6SM SKC
     FM252000 13012KT P6SM SKC=



000
FTUS43 KICT 250500
TAFSLN
TAF
KSLN 250520Z 2506/2606 21006KT P6SM SKC
     FM251000 VRB03KT 4SM BR SKC
     FM251400 07008KT P6SM SKC
     FM252000 12010KT P6SM SKC=



000
FTUS43 KICT 250500
TAFCNU
TAF
KCNU 250520Z 2506/2606 19006KT P6SM SKC
     FM250900 VRB03KT 3SM BR SKC
      TEMPO 2511/2513 1SM BR
     FM251400 08005KT P6SM SKC
     FM252200 12007KT P6SM SKC=



000
FTUS43 KICT 250500
TAFHUT
TAF
KHUT 250520Z 2506/2606 21006KT P6SM SKC
     FM251000 VRB03KT 4SM BR SKC
     FM251400 08008KT P6SM SKC
     FM251900 14010KT P6SM SKC=



000
FTUS43 KICT 250500
TAFICT
TAF
KICT 250520Z 2506/2606 21005KT P6SM SKC
     FM251000 VRB03KT 4SM BR SKC
     FM251400 08006KT P6SM SKC
     FM252000 14010KT P6SM SKC=



000
FTUS43 KICT 242300
TAFRSL
TAF
KRSL 242320Z 2500/2524 23006KT P6SM SKC
     FM251200 04006KT P6SM SKC
     FM251500 09006KT P6SM SKC
     FM251900 13012KT P6SM SKC=



000
FTUS43 KICT 242300
TAFCNU
TAF
KCNU 242320Z 2500/2524 19006KT P6SM FEW250
     FM250900 VRB03KT 3SM BR SKC
      TEMPO 2510/2514 1/2SM FG
     FM251600 08008KT P6SM SKC=



000
FTUS43 KICT 242300
TAFHUT
TAF
KHUT 242320Z 2500/2524 21006KT P6SM SKC
     FM250900 VRB03KT 1SM BR SKC
     FM251500 08008KT P6SM SKC
     FM251900 13010KT P6SM SKC=



000
FTUS43 KICT 242300
TAFICT
TAF
KICT 242320Z 2500/2524 21005KT P6SM SKC
     FM251000 VRB03KT 4SM BR SKC
     FM251400 08006KT P6SM SKC
     FM252000 13010KT P6SM SKC=



000
FTUS43 KICT 242300
TAFSLN
TAF
KSLN 242320Z 2500/2524 19006KT P6SM SKC
     FM251000 VRB03KT 4SM BR SKC
     FM251500 07008KT P6SM SKC
     FM252000 12010KT P6SM SKC=



000
FTUS43 KICT 241700
TAFRSL
TAF
KRSL 241725Z 2418/2518 23012KT P6SM FEW250
     FM250000 23006KT P6SM FEW250
     FM251200 04006KT P6SM FEW250
     FM251500 09008KT P6SM FEW250=



000
FTUS43 KICT 241700
TAFICT
TAF
KICT 241725Z 2418/2518 20012KT P6SM SCT250
     FM250000 21006KT P6SM FEW250
     FM251000 VRB03KT 4SM BR FEW250
     FM251500 08008KT P6SM FEW250=



000
FTUS43 KICT 241700
TAFCNU
TAF
KCNU 241725Z 2418/2518 21011KT P6SM SCT250
     FM250000 19007KT P6SM FEW250
     FM251100 VRB03KT 4SM BR FEW250
     FM251500 08008KT P6SM FEW250=



000
FTUS43 KICT 241700
TAFHUT
TAF
KHUT 241725Z 2418/2518 20012KT P6SM SCT250
     FM250000 21006KT P6SM FEW250
     FM250900 VRB03KT 1SM BR FEW250
     FM251500 08008KT P6SM FEW250=



000
FTUS43 KICT 241700
TAFSLN
TAF
KSLN 241725Z 2418/2518 20012KT P6SM SCT250
     FM250000 19005KT P6SM FEW250
     FM251000 VRB03KT 4SM BR FEW250
     FM251500 07008KT P6SM FEW250=



000
FTUS43 KICT 241500 AAD
TAFHUT
TAF AMD
KHUT 241504Z 2415/2512 18007KT 2SM BR OVC002
      TEMPO 2415/2416 5SM BR SCT005 OVC300
     FM241600 21009KT P6SM BKN300=



000
FTUS43 KICT 241400 AAA
TAFRSL
TAF AMD
KRSL 241453Z 2415/2512 19009KT 5SM BR OVC300
     FM241500 24013KT P6SM BKN300
     FM242300 22005KT P6SM SKC=



000
FTUS43 KICT 241400 AAC
TAFHUT
TAF AMD
KHUT 241404Z 2414/2512 18007KT 1/4SM FG OVC002
      TEMPO 2414/2416 3SM BR SCT005 OVC300
     FM241600 21009KT P6SM BKN300=



000
FTUS43 KICT 241400 AAC
TAFHUT
TAF AMD
KHUT 241404Z 2414/2512 18007KT 1/4SM FG OVC002
      TEMPO 2414/2416 3SM BR SCT005 OVC300
     FM241600 21009KT P6SM BKN300=



000
FTUS43 KICT 241300 AAB
TAFHUT
TAF AMD
KHUT 241303Z 2413/2512 18007KT 1SM BR OVC002
      TEMPO 2413/2415 4SM BR SCT005 OVC300
     FM241500 21009KT P6SM BKN300=



000
FTUS43 KICT 241100 AAA
TAFHUT
TAF AMD
KHUT 241150Z 2412/2512 17005KT 2SM BR BKN005 OVC300
      TEMPO 2412/2414 4SM BR SCT005 OVC300
     FM241400 21009KT P6SM BKN300=



000
FTUS43 KICT 241100
TAFCNU
TAF
KCNU 241135Z 2412/2512 16005KT P6SM SCT045 OVC300
     FM241500 21009KT P6SM SCT045 OVC300=



000
FTUS43 KICT 241100
TAFICT
TAF
KICT 241135Z 2412/2512 18005KT 5SM BR BKN300
     FM241400 19007KT P6SM SCT015 BKN300
     FM241530 19009KT P6SM BKN300=



000
FTUS43 KICT 241100
TAFSLN
TAF
KSLN 241135Z 2412/2512 18007KT 5SM BR OVC300
     FM241500 19009KT P6SM OVC300
     FM242000 22017KT P6SM BKN300=



000
FTUS43 KICT 241100
TAFRSL
TAF
KRSL 241135Z 2412/2512 19009KT 5SM BR OVC300
     FM241400 24013KT P6SM BKN300
     FM242300 22005KT P6SM SKC=



000
FTUS43 KICT 241100
TAFHUT
TAF
KHUT 241135Z 2412/2512 17005KT 2SM BR OVC300
      TEMPO 2412/2414 4SM BR
     FM241400 21009KT P6SM BKN300=



000
FTUS43 KICT 241000 AAB
TAFHUT
TAF AMD
KHUT 241015Z 2410/2506 17005KT 2SM BR OVC300
      TEMPO 2410/2414 4SM BR
     FM241400 21009KT P6SM BKN300=



000
FTUS43 KICT 241000 AAB
TAFSLN
TAF AMD
KSLN 241007Z 2410/2506 19009KT P6SM OVC300
     FM242000 22017KT P6SM SKC
     FM242300 20009KT P6SM SKC=



000
FTUS43 KICT 241000 AAA
TAFRSL
TAF AMD
KRSL 241005Z 2410/2506 19009KT P6SM OVC300
     FM241400 24013KT P6SM BKN300
     FM242300 22005KT P6SM SKC=



000
FTUS43 KICT 241000 AAA
TAFRSL
TAF AMD
KRSL 241005Z 2410/2506 19009KT P6SM OVC300
     FM241400 24013KT P6SM BKN300
     FM242300 22005KT P6SM SKC=



000
FTUS43 KICT 240900 AAA
TAFICT
TAF AMD
KICT 240915Z 2409/2506 17005KT P6SM BKN300
     FM241100 18005KT 5SM BR BKN300
     FM241400 19007KT P6SM SCT015 BKN300
     FM241530 19009KT P6SM BKN300=



000
FTUS43 KICT 240800 AAA
TAFCNU
TAF AMD
KCNU 240812Z 2408/2506 14005KT 5SM BR BKN045
     FM241400 21009KT P6SM SCT045=



000
FTUS43 KICT 240800 AAA
TAFCNU
TAF AMD
KCNU 240812Z 2408/2506 14005KT 5SM BR BKN045
     FM241400 21009KT P6SM SCT045=



000
FTUS43 KICT 240800 AAA
TAFHUT
TAF AMD
KHUT 240807Z 2408/2506 15007KT 4SM BR BKN300
     FM241500 21009KT P6SM BKN300=



000
FTUS43 KICT 240800 AAA
TAFHUT
TAF AMD
KHUT 240807Z 2408/2506 15007KT 4SM BR BKN300
     FM241500 21009KT P6SM BKN300=



000
FTUS43 KICT 240600 AAA
TAFSLN
TAF AMD
KSLN 240625Z 2406/2506 18005KT 4SM BR BKN250
     FM241400 19009KT P6SM BKN250
     FM242000 22017KT P6SM SKC=



000
FTUS43 KICT 240500
TAFCNU
TAF
KCNU 240520Z 2406/2506 17007KT 4SM BR OVC030
     FM240900 19006KT 2SM BR BKN012
      TEMPO 2409/2413 1SM BR BKN008
     FM241500 20014KT P6SM SCT030=



000
FTUS43 KICT 240500
TAFRSL
TAF
KRSL 240520Z 2406/2506 18008KT P6SM SCT200
     FM240900 20006KT 4SM BR SCT250
     FM241800 22013KT P6SM SKC=



000
FTUS43 KICT 240500
TAFICT
TAF
KICT 240520Z 2406/2506 17007KT P6SM BKN035
     FM241000 18006KT 4SM BR BKN012
     FM241500 21010KT P6SM SCT030=



000
FTUS43 KICT 240500
TAFSLN
TAF
KSLN 240520Z 2406/2506 17008KT P6SM SCT200
     FM240800 19006KT 4SM BR SCT250
     FM241200 19008KT P6SM OVC015
     FM241800 21015KT P6SM SKC=



000
FTUS43 KICT 240500
TAFHUT
TAF
KHUT 240520Z 2406/2506 VRB05KT 6SM BR SCT200
     FM240900 19005KT 4SM BR BKN012
     FM241500 21010KT P6SM SCT030=



000
FTUS43 KICT 232300
TAFRSL
TAF
KRSL 232320Z 2400/2424 VRB06KT P6SM SCT025 OVC250
     FM240500 19006KT 4SM BR SCT010 OVC250
     FM240900 20010KT P6SM BKN250
     FM241300 22011KT P6SM SCT250=



000
FTUS43 KICT 232300
TAFSLN
TAF
KSLN 232320Z 2400/2424 VRB06KT P6SM SCT025 OVC250
     FM241500 21012KT P6SM SCT250=



000
FTUS43 KICT 232300
TAFCNU
TAF
KCNU 232320Z 2400/2424 17008KT P6SM OVC025
     FM240500 17005KT 4SM BR SCT015
     FM240800 VRB05KT P6SM OVC025
     FM241600 21013KT P6SM SKC=



000
FTUS43 KICT 232300
TAFHUT
TAF
KHUT 232320Z 2400/2424 17005KT P6SM SCT035 BKN250
     FM241700 21013KT P6SM SCT250=



000
FTUS43 KICT 232300
TAFICT
TAF
KICT 232320Z 2400/2424 17006KT P6SM BKN035 OVC250
     FM240300 17006KT P6SM SCT250
     FM241700 20013KT P6SM SCT250=



000
FTUS43 KICT 231700
TAFCNU
TAF
KCNU 231720Z 2318/2418 19011KT P6SM SCT015 BKN020
      TEMPO 2318/2321 BKN015
     FM240200 18006KT P6SM SCT030
     FM240600 21005KT P6SM BKN250=



000
FTUS43 KICT 231700
TAFRSL
TAF
KRSL 231720Z 2318/2418 21005KT P6SM SCT015
     FM240200 21006KT P6SM SCT015 BKN250=



000
FTUS43 KICT 231700
TAFICT
TAF
KICT 231720Z 2318/2418 19008KT P6SM SCT015 OVC035
      TEMPO 2318/2320 BKN015
     FM232000 21006KT P6SM SCT035
     FM240000 21005KT P6SM BKN250=



000
FTUS43 KICT 231700
TAFHUT
TAF
KHUT 231720Z 2318/2418 19008KT P6SM SCT015 SCT040
     FM232000 22008KT P6SM SCT035
     FM240000 21005KT P6SM BKN250=



000
FTUS43 KICT 231700
TAFSLN
TAF
KSLN 231720Z 2318/2418 20009KT P6SM SCT015
     FM240200 21007KT P6SM SCT025 BKN250=



000
FTUS43 KICT 231700 AAE
TAFRSL
TAF AMD
KRSL 231701Z 2317/2412 VRB03KT P6SM SCT006
     FM231900 18006KT P6SM SCT015=



000
FTUS43 KICT 231700 AAE
TAFRSL
TAF AMD
KRSL 231701Z 2317/2412 VRB03KT P6SM SCT006
     FM231900 18006KT P6SM SCT015=



000
FTUS43 KICT 231600 AAD
TAFRSL
TAF AMD
KRSL 231600Z 2316/2412 VRB05KT P6SM SCT006
     FM231700 VRB03KT P6SM SCT006 BKN009
     FM231900 18006KT P6SM SCT015=



000
FTUS43 KICT 231600 AAD
TAFRSL
TAF AMD
KRSL 231600Z 2316/2412 VRB05KT P6SM SCT006
     FM231700 VRB03KT P6SM SCT006 BKN009
     FM231900 18006KT P6SM SCT015=



000
FTUS43 KICT 231400 AAC
TAFRSL
TAF AMD
KRSL 231455Z 2315/2412 20005KT 5SM BR SCT004
      TEMPO 2315/2316 2SM BR BKN004
     FM231600 VRB05KT 3SM BR SCT002 BKN006
     FM231700 VRB05KT 5SM BR SCT006 BKN009
     FM231900 18006KT P6SM SCT015=



000
FTUS43 KICT 231400 AAB
TAFRSL
TAF AMD
KRSL 231404Z 2314/2412 20005KT 3SM BR BKN004
      TEMPO 2314/2316 1SM BR
     FM231600 VRB05KT 3SM BR SCT002 BKN006
     FM231700 VRB05KT 5SM BR SCT006 BKN009
     FM231900 18006KT P6SM SCT015=



000
FTUS43 KICT 231200 AAA
TAFRSL
TAF AMD
KRSL 231242Z 2313/2412 20005KT 1 1/2SM BR SCT002
      TEMPO 2313/2316 1/2SM FG OVC002
     FM231600 VRB05KT 3SM BR SCT002 BKN006
     FM231700 VRB05KT 5SM BR SCT006 BKN009
     FM231900 18006KT P6SM SCT015=



000
FTUS43 KICT 231100
TAFCNU
TAF
KCNU 231124Z 2312/2412 19007KT 6SM BR VCSH SCT025 OVC060
      TEMPO 2312/2314 -SHRA
     FM231500 19011KT P6SM SCT015 BKN025
     FM240000 18006KT P6SM SCT030=



000
FTUS43 KICT 231100
TAFSLN
TAF
KSLN 231124Z 2312/2412 20009KT P6SM SCT015 OVC025
     FM231900 20007KT P6SM SCT025=



000
FTUS43 KICT 231100
TAFHUT
TAF
KHUT 231124Z 2312/2412 19008KT P6SM SCT015 OVC025
     FM232000 22008KT P6SM SCT030=



000
FTUS43 KICT 231100
TAFRSL
TAF
KRSL 231124Z 2312/2412 20005KT 3/4SM BR SCT002
      TEMPO 2312/2315 1/4SM FG OVC002
     FM231600 VRB05KT 2SM BR SCT002 BKN006
     FM231700 VRB05KT 5SM BR SCT006 BKN009
     FM231900 18006KT P6SM SCT015=



000
FTUS43 KICT 231100
TAFICT
TAF
KICT 231124Z 2312/2412 19008KT P6SM SCT015 OVC025
     FM232000 21008KT P6SM SCT030=



000
FTUS43 KICT 231000 AAB
TAFSLN
TAF AMD
KSLN 231034Z 2311/2406 20009KT P6SM SCT015 OVC025=



000
FTUS43 KICT 231000 AAB
TAFHUT
TAF AMD
KHUT 231033Z 2311/2406 19008KT P6SM SCT015 OVC025=



000
FTUS43 KICT 231000 AAC
TAFICT
TAF AMD
KICT 231032Z 2311/2406 19008KT P6SM SCT015 OVC025=



000
FTUS43 KICT 231000 AAC
TAFRSL
TAF AMD
KRSL 231001Z 2310/2406 20006KT 1SM BR SCT002
      TEMPO 2311/2315 1/2SM FG BKN002
     FM231700 VRB05KT P6SM OVC015=



000
FTUS43 KICT 231000 AAC
TAFRSL
TAF AMD
KRSL 231001Z 2310/2406 20006KT 1SM BR SCT002
      TEMPO 2311/2315 1/2SM FG BKN002
     FM231700 VRB05KT P6SM OVC015=



000
FTUS43 KICT 230900 AAB
TAFRSL
TAF AMD
KRSL 230925Z 2309/2406 20006KT 4SM BR SCT004
     FM231030 VRB04KT 1 1/2SM BR SCT002
      TEMPO 2311/2314 3/4SM BR BKN002
     FM231600 VRB05KT P6SM OVC015=



000
FTUS43 KICT 230800 AAB
TAFICT
TAF AMD
KICT 230803Z 2308/2406 19005KT P6SM SCT025 BKN040
     FM230900 19006KT P6SM SCT015 BKN025
     FM231100 19006KT 6SM BR SCT009 OVC015
     FM231700 19010KT P6SM BKN025=



000
FTUS43 KICT 230700 AAA
TAFRSL
TAF AMD
KRSL 230758Z 2308/2406 21007KT P6SM OVC015
     FM231100 VRB04KT 4SM BR SCT006 OVC009
     FM231600 VRB05KT P6SM OVC015=



000
FTUS43 KICT 230700 AAA
TAFSLN
TAF AMD
KSLN 230749Z 2308/2406 21006KT 6SM BR SCT009 OVC015
     FM231700 20010KT P6SM BKN025=



000
FTUS43 KICT 230700 AAA
TAFCNU
TAF AMD
KCNU 230744Z 2308/2406 19008KT P6SM VCSH SCT030 BKN060
      TEMPO 2308/2312 5SM SHRA BKN030
     FM231200 19007KT 6SM BR OVC015
     FM231800 18011KT P6SM BKN035=



000
FTUS43 KICT 230700 AAA
TAFHUT
TAF AMD
KHUT 230729Z 2307/2406 19006KT P6SM SCT015 BKN040
     FM231000 17006KT 6SM BR SCT009 OVC015
     FM231700 19008KT P6SM BKN025=



000
FTUS43 KICT 230700 AAA
TAFICT
TAF AMD
KICT 230727Z 2307/2406 18006KT P6SM BKN060
     FM230900 19006KT P6SM BKN035
     FM231200 19006KT 6SM BR OVC015
     FM231700 19010KT P6SM BKN025=



000
FTUS43 KICT 230500
TAFSLN
TAF
KSLN 230520Z 2306/2406 17008KT P6SM OVC035
     FM230900 VRB05KT 5SM BR OVC007
     FM231300 VRB05KT 2SM BR OVC003
     FM231700 20010KT P6SM OVC015=



000
FTUS43 KICT 230500
TAFRSL
TAF
KRSL 230520Z 2306/2406 19008KT P6SM BKN025
     FM230800 VRB05KT 5SM BR OVC004
     FM231300 VRB05KT 2SM BR OVC001
     FM231700 19008KT P6SM OVC015=



000
FTUS43 KICT 230500
TAFCNU
TAF
KCNU 230520Z 2306/2406 14005KT P6SM SHRA SCT025 BKN050
     FM231000 18006KT 4SM BR OVC015
     FM231800 18011KT P6SM BKN035=



000
FTUS43 KICT 230500
TAFHUT
TAF
KHUT 230520Z 2306/2406 17006KT P6SM BKN090 OVC100
     FM230800 17006KT P6SM OVC020
     FM231200 17006KT 4SM BR OVC004
     FM231700 19008KT P6SM BKN025=



000
FTUS43 KICT 230500
TAFICT
TAF
KICT 230520Z 2306/2406 18008KT P6SM BKN060 OVC100
     FM231000 19005KT P6SM OVC030
     FM231300 20005KT 4SM BR OVC007
     FM231700 18010KT P6SM BKN025=



    US Dept of Commerce
    National Oceanic and Atmospheric Administration
    National Weather Service
    1325 East West Highway
    Silver Spring, MD 20910
    Page Author: NWS Internet Services Team
Disclaimer
Information Quality
Credits
Glossary
Privacy Policy
Freedom of Information Act (FOIA)
About Us
Career Opportunities